Terminal Aerodrome Forecast
Issued by NWS Twin Cities, MN

Home | Current Version | Previous Version | Text Only | Print | Product List | Glossary On
Versions: 1 2 3 4 5 6 7 8 9 10 11 12 13 14 15 16 17 18 19 20 21 22 23 24 25 26 27
000
FTUS43 KMPX 240800 CCA
TAFMSP
TAF COR
KMSP 240854Z 2409/2512 11012G21KT 5SM -RA BR BKN015 OVC025
     FM241200 11012G21KT 4SM -RA BR SCT008 OVC015
      TEMPO 2412/2416 2SM -RA BR BKN008
     FM241600 15007KT 5SM -RA BR BKN012
     FM242000 26009KT P6SM SCT010 BKN020
     FM250000 30007KT P6SM SCT020 BKN050
     FM250300 27005KT P6SM SCT070=

USA.gov is the U.S. government's official web portal to all federal, state and local government web resources and services.